Time;durP1;ratioP1;P1;durP2;ratioP2;P2;SDS_P1;SDS_P2;PMS_P1;PMS_P2;Temp;Humidity;BMP_temperature;BMP_pressure;BME280_temperature;BME280_humidity;BME280_pressure;Samples;Min_cycle;Max_cycle;Signal;HPM_P1;HPM_P2
2023/01/03 00:02:01;;;;;;;2.90;0.90;;;;;;;7.29;86.17;99537.92;1662978;85;21428;-96
2023/01/03 00:04:28;;;;;;;1.55;0.70;;;;;;;7.30;86.17;99546.56;1668436;84;21461;-96
2023/01/03 00:06:55;;;;;;;3.17;1.10;;;;;;;7.30;86.14;99550.00;1685652;83;21523;-92
2023/01/03 00:09:23;;;;;;;1.10;0.70;;;;;;;7.30;86.23;99542.20;1678586;83;21054;-96
2023/01/03 00:14:40;;;;;;;1.80;0.80;;;;;;;7.30;86.17;99547.40;1672989;83;21051;-95
2023/01/03 00:17:08;;;;;;;0.85;0.50;;;;;;;7.29;86.19;99552.21;1675591;84;21009;-95
2023/01/03 00:19:42;;;;;;;1.77;0.78;;;;;;;7.27;86.05;99563.55;1629273;85;20978;-96
2023/01/03 00:22:10;;;;;;;3.45;0.78;;;;;;;7.22;86.09;99554.62;1677747;83;21507;-94
2023/01/03 00:24:37;;;;;;;1.87;0.80;;;;;;;7.21;86.21;99550.34;1672497;84;20984;-93
2023/01/03 00:27:04;;;;;;;1.63;0.60;;;;;;;7.21;86.16;99562.03;1673902;83;21563;-94
2023/01/03 00:29:30;;;;;;;3.15;0.80;;;;;;;7.18;86.11;99556.48;1676825;84;21038;-87
2023/01/03 00:31:57;;;;;;;3.92;0.85;;;;;;;7.15;86.08;99566.15;1678465;84;20958;-96
2023/01/03 00:34:24;;;;;;;1.65;0.65;;;;;;;7.12;86.11;99563.66;1678137;83;21086;-90
2023/01/03 00:36:51;;;;;;;1.95;0.60;;;;;;;7.10;86.10;99557.67;1676039;83;20958;-94
2023/01/03 00:39:17;;;;;;;2.83;0.80;;;;;;;7.07;86.19;99560.38;1677398;83;21066;-85
2023/01/03 00:41:44;;;;;;;4.17;0.80;;;;;;;7.08;86.32;99556.87;1675053;84;21482;-94
2023/01/03 00:44:11;;;;;;;2.63;0.70;;;;;;;7.08;86.39;99572.45;1673931;84;20992;-95
2023/01/03 00:46:37;;;;;;;2.50;0.97;;;;;;;7.10;86.54;99560.27;1674582;83;21575;-95
2023/01/03 00:49:04;;;;;;;2.83;0.80;;;;;;;7.10;86.35;99573.25;1675435;83;21598;-90
2023/01/03 00:51:33;;;;;;;2.27;0.95;;;;;;;7.08;86.45;99590.16;1669213;83;20950;-88
2023/01/03 00:54:02;;;;;;;4.47;0.70;;;;;;;7.07;86.40;99586.34;1631293;85;21016;-93
2023/01/03 00:56:34;;;;;;;3.60;0.93;;;;;;;7.03;86.34;99592.52;1677208;83;21014;-92
2023/01/03 00:59:00;;;;;;;3.85;0.80;;;;;;;7.01;86.45;99596.95;1640653;85;20970;-93
2023/01/03 01:01:35;;;;;;;1.80;0.80;;;;;;;7.00;86.44;99593.93;1679929;83;21097;-92
2023/01/03 01:04:10;;;;;;;2.90;0.80;;;;;;;6.98;86.52;99603.09;1673173;83;20993;-88
2023/01/03 01:06:44;;;;;;;5.30;1.20;;;;;;;6.99;86.63;99598.73;1675187;83;21034;-96
2023/01/03 01:09:14;;;;;;;2.27;0.80;;;;;;;6.98;86.58;99586.67;1639797;85;21524;-96
2023/01/03 01:11:41;;;;;;;3.92;0.98;;;;;;;7.01;86.63;99597.78;1691948;83;20986;-94
2023/01/03 01:14:21;;;;;;;3.30;0.70;;;;;;;7.02;86.59;99602.52;1682126;83;20972;-92
2023/01/03 01:17:00;;;;;;;4.67;0.88;;;;;;;6.97;86.77;99600.53;1674137;83;21076;-93
2023/01/03 01:19:33;;;;;;;2.87;1.00;;;;;;;6.95;86.81;99605.79;1676969;83;21020;-94
2023/01/03 01:22:00;;;;;;;3.85;1.22;;;;;;;6.91;86.86;99612.81;1676271;83;21077;-94
2023/01/03 01:24:27;;;;;;;2.83;1.10;;;;;;;6.92;86.90;99611.09;1677493;83;20955;-93
2023/01/03 01:26:54;;;;;;;2.30;0.95;;;;;;;6.90;86.82;99607.69;1687722;83;20996;-95
2023/01/03 01:29:21;;;;;;;2.27;0.95;;;;;;;6.87;87.01;99609.94;1687491;83;21014;-95
2023/01/03 01:31:48;;;;;;;3.90;1.07;;;;;;;6.83;87.00;99603.59;1691782;83;20962;-92
2023/01/03 01:34:15;;;;;;;4.15;0.90;;;;;;;6.82;87.11;99607.94;1683987;83;21059;-94
2023/01/03 01:36:44;;;;;;;3.15;0.78;;;;;;;6.81;87.23;99610.60;1683224;83;21017;-94
2023/01/03 01:39:21;;;;;;;4.15;1.05;;;;;;;6.84;87.33;99616.53;1686683;83;21154;-96
2023/01/03 01:44:54;;;;;;;6.50;1.20;;;;;;;6.85;87.28;99618.22;1657102;85;21016;-94
2023/01/03 01:47:53;;;;;;;4.35;1.22;;;;;;;6.85;87.40;99626.00;1676079;83;21042;-90
2023/01/03 01:50:51;;;;;;;4.42;1.10;;;;;;;6.87;87.45;99636.34;1687443;83;21596;-95
2023/01/03 01:53:22;;;;;;;3.33;1.02;;;;;;;6.87;87.39;99627.27;1690779;83;21455;-86
2023/01/03 01:56:00;;;;;;;4.15;1.32;;;;;;;6.85;87.42;99638.98;1688592;82;20996;-93
2023/01/03 01:58:37;;;;;;;2.40;0.80;;;;;;;6.83;87.42;99640.77;1688815;83;21464;-95
2023/01/03 02:01:09;;;;;;;3.35;0.98;;;;;;;6.79;87.38;99652.16;1681437;83;21063;-95
2023/01/03 02:03:36;;;;;;;3.75;0.90;;;;;;;6.75;87.28;99646.69;1687335;82;21008;-87
2023/01/03 02:06:07;;;;;;;5.93;1.07;;;;;;;6.69;87.39;99658.54;1690338;82;20995;-96
2023/01/03 02:08:33;;;;;;;3.62;0.90;;;;;;;6.67;87.54;99660.36;1701015;83;21480;-96
2023/01/03 02:11:28;;;;;;;3.73;1.27;;;;;;;6.65;87.40;99650.47;1671292;84;21003;-96
2023/01/03 02:14:18;;;;;;;6.53;1.25;;;;;;;6.58;87.40;99652.84;1696619;82;21501;-95
2023/01/03 02:17:20;;;;;;;3.75;0.93;;;;;;;6.50;87.31;99650.52;1694051;83;21018;-95
2023/01/03 02:20:26;;;;;;;3.42;0.98;;;;;;;6.37;87.06;99650.50;1702618;82;21010;-96
2023/01/03 02:23:17;;;;;;;6.55;1.30;;;;;;;6.24;87.29;99656.50;1699286;82;21016;-96
2023/01/03 02:26:31;;;;;;;3.90;0.80;;;;;;;6.24;87.53;99666.87;1696942;83;21218;-95
2023/01/03 02:29:40;;;;;;;5.12;1.15;;;;;;;6.27;87.59;99661.16;1695765;82;21039;-96
2023/01/03 02:32:40;;;;;;;2.40;0.98;;;;;;;6.32;87.46;99670.08;1700593;82;20983;-89
2023/01/03 02:35:23;;;;;;;2.83;0.90;;;;;;;6.23;87.26;99670.37;1699922;83;20991;-84
2023/01/03 02:38:07;;;;;;;3.95;1.07;;;;;;;6.13;87.09;99679.30;1674350;84;21006;-96
2023/01/03 02:40:48;;;;;;;5.30;0.98;;;;;;;6.05;87.14;99675.21;1696121;83;21072;-95
2023/01/03 02:43:20;;;;;;;7.28;1.45;;;;;;;6.05;87.30;99670.03;1697887;82;20928;-89
2023/01/03 02:46:10;;;;;;;2.80;0.90;;;;;;;6.07;87.29;99671.72;1701196;83;20967;-91
2023/01/03 02:48:58;;;;;;;6.97;1.37;;;;;;;6.11;87.30;99673.34;1676333;84;21425;-96
2023/01/03 02:51:36;;;;;;;2.95;1.12;;;;;;;6.15;87.36;99686.59;1696311;82;20955;-95
2023/01/03 02:54:04;;;;;;;;;;;;;;;6.20;87.36;99698.98;1703493;82;20989;-96
2023/01/03 02:56:38;;;;;;;2.95;0.90;;;;;;;6.22;87.22;99692.86;1700413;83;20194;-96
2023/01/03 02:59:10;;;;;;;5.70;1.10;;;;;;;6.15;86.97;99695.67;1690424;82;21016;-95
2023/01/03 03:01:44;;;;;;;6.05;1.27;;;;;;;6.04;86.78;99704.59;1703851;82;21519;-95
2023/01/03 03:04:09;;;;;;;4.47;0.90;;;;;;;5.92;86.66;99681.61;1697928;82;20988;-96
2023/01/03 03:07:04;;;;;;;7.35;1.45;;;;;;;5.83;86.71;99708.63;1699068;82;21461;-93
2023/01/03 03:09:31;;;;;;;4.70;1.22;;;;;;;5.77;86.75;99715.71;1691516;83;20973;-91
2023/01/03 03:14:49;;;;;;;3.30;1.37;;;;;;;5.76;86.81;99696.73;1678230;83;20980;-93
2023/01/03 03:17:20;;;;;;;2.55;0.80;;;;;;;5.81;86.88;99709.56;1654274;84;21098;-92
2023/01/03 03:25:40;;;;;;;5.57;0.90;;;;;;;5.94;86.80;99703.19;1690450;83;20992;-96
2023/01/03 03:31:05;;;;;;;2.15;1.00;;;;;;;6.02;86.81;99706.83;1660383;85;21016;-88
2023/01/03 03:33:35;;;;;;;2.83;0.85;;;;;;;6.06;86.72;99699.39;1690085;83;21474;-96
2023/01/03 03:36:20;;;;;;;3.12;0.60;;;;;;;6.09;86.67;99714.00;1689540;83;20966;-92
2023/01/03 03:38:47;;;;;;;2.83;0.93;;;;;;;6.11;86.58;99710.48;1695305;83;20940;-96
2023/01/03 03:47:47;;;;;;;3.62;1.17;;;;;;;6.13;86.40;99729.86;1691459;83;21523;-94
2023/01/03 03:50:30;;;;;;;5.55;0.75;;;;;;;6.15;86.33;99735.86;1696118;83;21072;-95
2023/01/03 03:53:01;;;;;;;2.58;0.82;;;;;;;6.15;86.21;99719.00;1689360;83;21511;-94
2023/01/03 03:55:35;;;;;;;5.85;1.40;;;;;;;6.16;86.12;99725.88;1683393;83;20941;-94
2023/01/03 03:58:22;;;;;;;4.40;1.02;;;;;;;6.16;86.05;99739.72;1695551;83;20993;-93
2023/01/03 04:00:51;;;;;;;3.98;0.78;;;;;;;6.17;85.85;99747.04;1691292;83;21096;-95
2023/01/03 04:03:20;;;;;;;3.65;0.72;;;;;;;6.16;85.80;99753.09;1689369;83;20995;-95
2023/01/03 04:06:02;;;;;;;3.67;0.95;;;;;;;6.15;85.71;99744.92;1700106;83;21029;-92
2023/01/03 04:08:28;;;;;;;2.15;0.88;;;;;;;6.14;85.62;99751.02;1694238;83;21644;-96
2023/01/03 04:11:04;;;;;;;4.87;0.98;;;;;;;6.13;85.54;99767.45;1661122;84;21034;-96
2023/01/03 04:13:24;;;;;;;1.62;0.60;;;;;;;6.12;85.45;99759.28;1699772;83;21049;-94
2023/01/03 04:15:50;;;;;;;4.12;1.55;;;;;;;6.11;85.35;99748.52;1703085;82;21306;-96
2023/01/03 04:18:17;;;;;;;3.30;0.90;;;;;;;6.10;85.28;99755.87;1702858;82;21038;-95
2023/01/03 04:20:43;;;;;;;5.53;1.07;;;;;;;6.09;85.24;99752.89;1700427;83;21045;-96
2023/01/03 04:23:10;;;;;;;2.40;0.72;;;;;;;6.04;85.14;99751.26;1699234;83;21002;-96
2023/01/03 04:25:37;;;;;;;4.25;1.02;;;;;;;6.04;85.06;99757.73;1664074;84;21011;-94
2023/01/03 04:28:04;;;;;;;3.67;0.68;;;;;;;6.05;85.05;99763.34;1668234;84;21372;-96
2023/01/03 04:30:30;;;;;;;4.42;0.72;;;;;;;6.03;84.87;99757.34;1700237;82;20978;-96
2023/01/03 04:32:57;;;;;;;5.08;0.78;;;;;;;5.95;84.68;99777.44;1672859;84;20965;-92
2023/01/03 04:35:23;;;;;;;5.42;1.02;;;;;;;5.94;84.76;99764.54;1676238;84;20990;-96
2023/01/03 04:37:50;;;;;;;4.67;0.87;;;;;;;5.94;84.73;99776.20;1677780;84;20995;-96
2023/01/03 04:40:16;;;;;;;4.78;1.20;;;;;;;5.89;84.49;99771.10;1694193;83;21039;-96
2023/01/03 04:45:28;;;;;;;7.33;1.17;;;;;;;5.88;84.40;99786.26;1696768;82;20935;-87
2023/01/03 04:47:54;;;;;;;5.45;1.17;;;;;;;5.87;84.43;99781.95;1669979;84;21000;-90
2023/01/03 04:50:21;;;;;;;3.75;1.07;;;;;;;5.87;84.36;99779.36;1697789;82;21012;-95
2023/01/03 04:52:47;;;;;;;6.58;1.25;;;;;;;5.83;84.25;99768.69;1661907;84;21007;-93
2023/01/03 04:55:14;;;;;;;8.18;1.30;;;;;;;5.81;84.14;99791.19;1671084;84;21512;-91
2023/01/03 04:57:41;;;;;;;7.17;2.00;;;;;;;5.81;84.18;99788.59;1703466;83;21446;-87
2023/01/03 05:00:09;;;;;;;5.22;1.12;;;;;;;5.80;84.03;99789.50;1703391;82;21013;-96
2023/01/03 05:02:35;;;;;;;2.98;0.85;;;;;;;5.76;83.99;99787.86;1703628;81;21530;-95
2023/01/03 05:05:02;;;;;;;6.20;1.10;;;;;;;5.70;83.81;99792.77;1695214;82;20970;-84
2023/01/03 05:07:29;;;;;;;5.45;0.80;;;;;;;5.67;83.94;99798.03;1668818;84;21576;-90
2023/01/03 05:09:56;;;;;;;6.33;1.00;;;;;;;5.68;83.93;99798.87;1691242;83;20993;-96
2023/01/03 05:12:22;;;;;;;5.20;1.10;;;;;;;5.72;83.84;99792.73;1661061;84;21031;-96
2023/01/03 05:14:51;;;;;;;8.90;1.45;;;;;;;5.70;83.81;99799.69;1679437;84;21101;-89
2023/01/03 05:17:19;;;;;;;6.00;1.45;;;;;;;5.73;83.77;99805.63;1677871;84;21040;-94
2023/01/03 05:28:04;;;;;;;3.72;1.32;;;;;;;5.56;83.47;99812.54;1687045;83;21078;-95
2023/01/03 05:30:30;;;;;;;3.92;1.30;;;;;;;5.57;83.47;99802.61;1695339;83;21454;-92
2023/01/03 05:32:57;;;;;;;7.47;2.10;;;;;;;5.60;83.43;99802.53;1702616;83;20982;-96
2023/01/03 05:35:25;;;;;;;4.35;1.70;;;;;;;5.60;83.43;99801.23;1689800;83;21016;-93
2023/01/03 05:37:54;;;;;;;;;;;;;;;5.63;83.46;99809.38;1697510;83;21011;-95
2023/01/03 05:40:20;;;;;;;11.43;4.20;;;;;;;5.64;83.37;99811.52;1695155;83;20108;-89
2023/01/03 05:42:47;;;;;;;6.08;2.67;;;;;;;5.58;83.42;99817.25;1693965;83;21031;-94
2023/01/03 05:45:13;;;;;;;9.97;3.23;;;;;;;5.60;83.35;99807.70;1689663;83;21097;-92
2023/01/03 05:47:40;;;;;;;6.57;2.23;;;;;;;5.58;83.20;99817.25;1706561;83;20960;-93
2023/01/03 05:50:07;;;;;;;4.30;1.70;;;;;;;5.59;83.21;99819.39;1709638;83;21001;-88
2023/01/03 05:52:34;;;;;;;10.25;2.40;;;;;;;5.58;83.10;99821.58;1695391;82;21031;-95
2023/01/03 05:55:00;;;;;;;5.90;1.95;;;;;;;5.57;83.11;99828.51;1694066;83;21046;-96
2023/01/03 05:57:27;;;;;;;3.75;1.50;;;;;;;5.55;83.09;99816.03;1690382;83;20958;-94
2023/01/03 06:00:03;;;;;;;6.83;1.35;;;;;;;5.57;83.10;99817.27;1697968;83;21029;-94
2023/01/03 06:02:27;;;;;;;3.90;1.00;;;;;;;5.56;83.09;99834.55;1694021;83;21095;-88
2023/01/03 06:04:55;;;;;;;4.60;1.50;;;;;;;5.55;83.01;99821.21;1667141;84;21416;-94
2023/01/03 06:07:21;;;;;;;4.62;1.22;;;;;;;5.54;82.98;99824.67;1697047;83;21546;-93
2023/01/03 06:09:48;;;;;;;3.77;0.85;;;;;;;5.49;82.77;99824.38;1700251;83;21052;-91
2023/01/03 06:12:14;;;;;;;7.50;1.00;;;;;;;5.43;82.84;99823.24;1694307;83;20943;-89
2023/01/03 06:14:43;;;;;;;7.67;1.60;;;;;;;5.40;82.83;99830.64;1701678;83;20954;-94
2023/01/03 06:19:55;;;;;;;7.05;1.22;;;;;;;5.31;82.73;99837.34;1696669;83;20962;-94
2023/01/03 06:22:22;;;;;;;9.23;1.50;;;;;;;5.21;82.66;99845.78;1691757;83;20970;-95
2023/01/03 06:24:49;;;;;;;3.80;1.20;;;;;;;5.16;82.63;99843.30;1676679;83;21026;-95
2023/01/03 06:27:15;;;;;;;3.80;0.98;;;;;;;5.14;82.74;99846.80;1698923;83;21044;-95
2023/01/03 06:29:42;;;;;;;4.22;1.05;;;;;;;5.13;82.76;99845.95;1663580;84;20968;-96
2023/01/03 06:32:08;;;;;;;6.37;0.90;;;;;;;5.11;82.64;99854.19;1671160;84;21042;-95
2023/01/03 06:34:35;;;;;;;5.05;0.95;;;;;;;5.09;82.69;99844.30;1678795;84;21050;-96
2023/01/03 06:37:01;;;;;;;5.47;1.23;;;;;;;5.11;82.75;99855.48;1692485;83;20956;-94
2023/01/03 06:39:28;;;;;;;5.12;1.30;;;;;;;5.06;82.54;99865.08;1675228;84;20981;-92
2023/01/03 06:41:55;;;;;;;9.50;2.05;;;;;;;4.96;82.47;99848.08;1673975;84;21000;-92
2023/01/03 06:44:22;;;;;;;6.10;1.17;;;;;;;4.96;82.72;99857.55;1672384;84;21005;-93
2023/01/03 06:53:11;;;;;;;5.62;1.77;;;;;;;5.03;82.67;99857.39;1684731;84;20944;-92
2023/01/03 06:55:04;;;;;;;4.97;1.42;;;;;;;4.89;82.34;99856.84;1675917;84;21010;-95
2023/01/03 06:57:30;;;;;;;6.00;1.22;;;;;;;4.82;82.51;99876.84;1678516;84;21038;-90
2023/01/03 06:59:57;;;;;;;4.97;1.13;;;;;;;4.81;82.50;99879.00;1692937;83;21003;-95
2023/01/03 07:02:24;;;;;;;7.45;1.70;;;;;;;4.83;82.63;99885.45;1702016;83;20940;-87
2023/01/03 07:04:50;;;;;;;8.00;2.15;;;;;;;4.90;82.70;99897.35;1667793;83;21175;-92
2023/01/03 07:07:21;;;;;;;3.87;1.37;;;;;;;4.90;82.54;99910.28;1642386;86;21118;-88
2023/01/03 07:09:46;;;;;;;6.17;1.45;;;;;;;4.88;82.45;99906.91;1647625;85;21186;-93
2023/01/03 07:14:57;;;;;;;7.90;1.25;;;;;;;4.79;82.42;99909.66;1630650;83;21066;-96
2023/01/03 07:17:24;;;;;;;3.62;1.30;;;;;;;4.83;82.63;99911.31;1661278;83;21140;-94
2023/01/03 07:19:50;;;;;;;4.72;0.98;;;;;;;4.86;82.62;99913.84;1618709;86;21062;-86
2023/01/03 07:22:17;;;;;;;7.12;1.12;;;;;;;4.88;82.55;99909.05;1623157;86;21066;-96
2023/01/03 07:24:43;;;;;;;5.33;1.40;;;;;;;4.90;82.57;99910.28;1625052;87;21121;-91
2023/01/03 07:27:10;;;;;;;8.23;1.37;;;;;;;4.91;82.53;99905.55;1626800;87;21545;-92
2023/01/03 07:29:37;;;;;;;5.03;1.05;;;;;;;4.89;82.47;99918.50;1624172;87;21235;-89
2023/01/03 07:32:05;;;;;;;4.97;1.40;;;;;;;4.93;82.69;99920.16;1628317;87;20916;-96
2023/01/03 07:34:34;;;;;;;5.28;1.27;;;;;;;5.02;82.61;99924.73;1627724;87;21031;-92
2023/01/03 07:37:00;;;;;;;5.80;1.35;;;;;;;5.02;82.58;99930.75;1626700;86;21577;-96
2023/01/03 07:39:39;;;;;;;7.20;1.42;;;;;;;5.06;82.71;99934.12;1624932;87;21082;-93
2023/01/03 07:44:50;;;;;;;7.42;1.00;;;;;;;5.22;82.74;99925.59;1624721;86;21022;-92
2023/01/03 07:47:20;;;;;;;4.93;1.47;;;;;;;5.28;82.74;99928.03;1622928;86;21002;-96
2023/01/03 07:49:46;;;;;;;3.85;1.02;;;;;;;5.31;82.68;99929.25;1626305;87;21074;-95
2023/01/03 07:52:13;;;;;;;3.47;1.20;;;;;;;5.34;82.72;99936.95;1624782;86;20978;-96
2023/01/03 07:54:40;;;;;;;5.00;1.10;;;;;;;5.39;82.78;99927.34;1626955;86;21126;-90
2023/01/03 07:57:06;;;;;;;5.83;1.57;;;;;;;5.45;82.78;99931.08;1628470;87;21078;-89
2023/01/03 07:59:36;;;;;;;3.40;1.63;;;;;;;5.47;82.69;99922.84;1622574;86;21094;-94
2023/01/03 08:02:05;;;;;;;4.00;1.27;;;;;;;5.50;82.65;99943.49;1619309;87;21640;-94
2023/01/03 08:04:32;;;;;;;5.65;1.17;;;;;;;5.52;82.70;99944.31;1622625;86;21503;-88
2023/01/03 08:06:58;;;;;;;4.23;0.97;;;;;;;5.51;82.66;99942.59;1622794;86;21045;-91
2023/01/03 08:15:02;;;;;;;7.08;1.30;;;;;;;5.57;82.57;99947.66;1619719;87;21604;-90
2023/01/03 08:17:30;;;;;;;5.83;1.52;;;;;;;5.57;82.56;99941.19;1623830;86;21039;-92
2023/01/03 08:19:57;;;;;;;5.17;1.17;;;;;;;5.59;82.47;99948.90;1644789;85;21004;-90
2023/01/03 08:22:24;;;;;;;3.80;1.17;;;;;;;5.59;82.40;99966.58;1640827;86;21053;-90
2023/01/03 08:24:50;;;;;;;5.27;1.23;;;;;;;5.60;82.47;99963.55;1639515;86;21069;-91
2023/01/03 08:27:17;;;;;;;7.70;1.87;;;;;;;5.63;82.44;99963.92;1639297;86;21054;-87
2023/01/03 08:29:46;;;;;;;7.40;1.47;;;;;;;5.65;82.42;99968.63;1638637;86;21005;-91
2023/01/03 08:32:13;;;;;;;7.25;1.55;;;;;;;5.68;82.42;99967.26;1636765;86;21101;-92
2023/01/03 08:34:43;;;;;;;8.43;1.20;;;;;;;5.70;82.40;99979.30;1646523;86;21768;-87
2023/01/03 08:37:12;;;;;;;5.80;1.30;;;;;;;5.70;82.27;99981.04;1638115;86;21135;-92
2023/01/03 08:39:47;;;;;;;5.55;1.10;;;;;;;5.68;82.23;99985.39;1630020;86;21022;-93
2023/01/03 08:42:19;;;;;;;4.55;1.30;;;;;;;5.69;82.30;99998.78;1643751;86;21655;-91
2023/01/03 08:44:44;;;;;;;5.62;1.45;;;;;;;5.72;82.25;99984.45;1639565;86;21049;-89
2023/01/03 08:47:12;;;;;;;7.17;1.85;;;;;;;5.73;82.16;99979.22;1650927;85;21101;-91
2023/01/03 08:49:41;;;;;;;6.70;1.17;;;;;;;5.74;82.11;100000.80;1645037;85;20953;-92
2023/01/03 08:52:07;;;;;;;12.10;1.27;;;;;;;5.76;82.13;99993.84;1642413;84;21557;-89
2023/01/03 08:54:34;;;;;;;4.30;1.50;;;;;;;5.81;82.05;99998.48;1640108;86;21544;-93
2023/01/03 08:57:01;;;;;;;6.40;1.50;;;;;;;5.82;82.10;100004.06;1638548;86;21516;-91
2023/01/03 08:59:27;;;;;;;6.00;1.85;;;;;;;5.83;82.19;100005.78;1638306;86;21101;-92
2023/01/03 09:01:59;;;;;;;7.03;1.53;;;;;;;5.86;82.12;100015.23;1643775;86;20951;-90
2023/01/03 09:04:26;;;;;;;3.15;1.30;;;;;;;5.92;81.95;100009.90;1640163;84;21034;-91
2023/01/03 09:06:53;;;;;;;5.03;1.27;;;;;;;5.91;81.80;100009.05;1637515;86;21001;-91
2023/01/03 09:09:19;;;;;;;4.72;1.20;;;;;;;5.94;81.82;100013.34;1635931;86;21061;-94
2023/01/03 09:11:46;;;;;;;4.57;1.10;;;;;;;5.93;81.67;100015.06;1635554;86;20971;-89
2023/01/03 09:14:13;;;;;;;11.22;1.92;;;;;;;5.96;81.74;100026.65;1642176;86;21281;-93
2023/01/03 09:16:39;;;;;;;6.17;1.45;;;;;;;5.98;81.64;100024.88;1640510;86;21054;-91
2023/01/03 09:19:06;;;;;;;4.90;1.37;;;;;;;5.97;81.62;100028.38;1640664;85;21078;-93
2023/01/03 09:21:33;;;;;;;5.87;1.55;;;;;;;5.97;81.55;100037.45;1606275;87;20989;-93
2023/01/03 09:23:59;;;;;;;5.58;1.32;;;;;;;5.99;81.68;100038.27;1631848;86;20970;-93
2023/01/03 09:26:26;;;;;;;5.37;1.40;;;;;;;6.02;81.56;100043.38;1635020;86;21063;-92
2023/01/03 09:28:52;;;;;;;4.55;1.20;;;;;;;6.03;81.48;100047.66;1639113;85;20998;-87
2023/01/03 09:31:19;;;;;;;4.25;1.07;;;;;;;6.00;81.69;100049.03;1640356;86;21076;-93
2023/01/03 09:33:45;;;;;;;6.50;1.62;;;;;;;6.08;81.55;100044.09;1641037;86;21007;-92
2023/01/03 09:36:12;;;;;;;9.50;1.52;;;;;;;6.03;81.43;100055.44;1641286;86;21477;-92
2023/01/03 09:38:39;;;;;;;6.37;1.63;;;;;;;6.04;81.53;100049.35;1633632;85;20986;-93
2023/01/03 09:41:09;;;;;;;8.00;1.80;;;;;;;6.01;81.55;100062.39;1640397;85;20954;-92
2023/01/03 09:43:44;;;;;;;4.62;1.30;;;;;;;6.01;81.62;100052.02;1639619;85;21068;-93
2023/01/03 09:46:18;;;;;;;4.00;1.37;;;;;;;6.03;81.72;100072.73;1638539;85;21509;-94
2023/01/03 09:48:47;;;;;;;7.90;1.60;;;;;;;6.13;81.65;100059.95;1636041;85;21031;-93
2023/01/03 10:03:51;;;;;;;6.22;1.62;;;;;;;6.17;81.53;100062.05;1641694;86;20975;-91
2023/01/03 10:06:46;;;;;;;7.83;1.60;;;;;;;6.18;81.64;100068.92;1616237;86;21047;-91
2023/01/03 10:09:20;;;;;;;5.83;1.80;;;;;;;6.26;81.83;100067.85;1635972;86;20993;-92
2023/01/03 10:12:04;;;;;;;5.65;1.52;;;;;;;6.39;81.77;100064.53;1638835;85;21041;-91
2023/01/03 10:14:51;;;;;;;7.35;1.20;;;;;;;6.46;81.82;100069.95;1631581;86;21018;-92
2023/01/03 10:20:49;;;;;;;5.15;1.32;;;;;;;6.49;81.70;100069.88;1506868;92;21081;-91
2023/01/03 10:23:20;;;;;;;5.55;1.32;;;;;;;6.45;81.68;100091.61;1520237;92;20971;-91
2023/01/03 10:25:46;;;;;;;5.10;1.45;;;;;;;6.45;81.68;100099.39;1529228;91;21100;-92
2023/01/03 10:28:30;;;;;;;8.03;1.93;;;;;;;6.52;82.02;100083.66;1513745;92;21155;-92
2023/01/03 10:31:02;;;;;;;3.80;1.00;;;;;;;6.61;82.01;100096.41;1542676;90;21055;-91
2023/01/03 10:33:42;;;;;;;4.25;1.30;;;;;;;6.70;81.86;100097.48;1534916;91;21045;-89
2023/01/03 10:36:09;;;;;;;4.20;1.52;;;;;;;6.71;81.97;100091.40;1509802;92;21185;-88
2023/01/03 10:38:37;;;;;;;7.23;1.50;;;;;;;6.75;82.09;100086.55;1525200;92;21064;-89
2023/01/03 10:41:04;;;;;;;4.90;1.55;;;;;;;6.70;82.02;100085.81;1556567;89;21028;-88
2023/01/03 10:43:38;;;;;;;5.28;1.40;;;;;;;6.67;81.91;100096.27;1554598;90;21007;-90
2023/01/03 10:46:15;;;;;;;3.62;1.27;;;;;;;6.58;81.79;100096.48;1558237;89;21611;-90
2023/01/03 10:48:46;;;;;;;5.42;1.25;;;;;;;6.49;81.60;100090.63;1558627;89;21106;-87
2023/01/03 10:51:36;;;;;;;4.65;1.27;;;;;;;6.44;81.90;100100.29;1588290;86;21151;-87
2023/01/03 10:54:20;;;;;;;6.28;2.08;;;;;;;6.47;82.05;100099.36;1622912;86;21066;-89
2023/01/03 10:56:50;;;;;;;3.33;1.20;;;;;;;6.44;81.73;100100.29;1620749;86;21015;-87
2023/01/03 10:59:26;;;;;;;5.12;1.47;;;;;;;6.32;81.63;100101.02;1620584;87;21097;-86
2023/01/03 11:02:11;;;;;;;6.73;1.40;;;;;;;6.25;81.84;100110.24;1623721;87;21488;-85
2023/01/03 11:04:39;;;;;;;8.48;2.08;;;;;;;6.18;81.84;100102.19;1624024;87;21031;-85
2023/01/03 11:07:12;;;;;;;3.40;1.05;;;;;;;6.18;81.95;100107.37;1625577;87;20987;-86
2023/01/03 11:09:52;;;;;;;4.92;1.98;;;;;;;6.11;81.70;100107.57;1619626;86;21035;-89
2023/01/03 11:12:40;;;;;;;6.12;1.80;;;;;;;6.02;82.29;100115.95;1626861;86;20943;-88
2023/01/03 11:15:37;;;;;;;6.90;1.80;;;;;;;5.99;82.15;100110.84;1589551;87;20991;-87
2023/01/03 11:18:07;;;;;;;5.83;1.40;;;;;;;5.99;82.26;100100.48;1626840;86;21060;-87
2023/01/03 11:21:09;;;;;;;7.47;1.60;;;;;;;6.02;82.37;100109.48;1632932;86;20990;-85
2023/01/03 11:24:10;;;;;;;3.92;1.67;;;;;;;5.97;82.16;100115.20;1630412;86;20994;-85
2023/01/03 11:26:50;;;;;;;6.30;2.05;;;;;;;5.91;82.29;100115.31;1632797;86;21695;-86
2023/01/03 11:30:08;;;;;;;6.42;1.85;;;;;;;5.92;82.31;100118.30;1635220;86;20980;-86
2023/01/03 11:33:01;;;;;;;9.73;1.67;;;;;;;5.97;82.36;100116.50;1637660;85;21001;-86
2023/01/03 11:36:01;;;;;;;5.47;1.35;;;;;;;5.98;82.53;100118.64;1631822;87;21014;-86
2023/01/03 11:38:45;;;;;;;4.90;1.42;;;;;;;6.02;82.58;100115.95;1634526;86;21065;-87
2023/01/03 11:41:29;;;;;;;6.97;1.62;;;;;;;6.04;82.53;100121.94;1633753;86;20935;-87
2023/01/03 11:44:27;;;;;;;6.72;1.57;;;;;;;6.02;82.71;100125.03;1633811;86;21510;-87
2023/01/03 11:47:15;;;;;;;6.55;1.62;;;;;;;6.04;82.67;100134.05;1597556;88;21007;-86
2023/01/03 11:50:04;;;;;;;9.43;1.77;;;;;;;6.01;82.60;100137.56;1598633;88;21028;-87
2023/01/03 11:52:44;;;;;;;8.95;1.60;;;;;;;5.96;82.67;100131.63;1590866;88;21096;-86
2023/01/03 11:55:42;;;;;;;6.33;1.80;;;;;;;5.99;82.85;100131.58;1634350;85;21480;-85
2023/01/03 11:58:17;;;;;;;7.37;1.30;;;;;;;6.07;82.94;100133.13;1631000;86;21073;-86
2023/01/03 12:01:06;;;;;;;5.30;1.72;;;;;;;6.07;82.67;100138.31;1630927;86;21513;-90
2023/01/03 12:04:21;;;;;;;5.03;1.50;;;;;;;6.02;82.71;100143.59;1633043;86;21005;-90
2023/01/03 12:07:14;;;;;;;2.67;1.00;;;;;;;6.00;82.85;100135.02;1635955;86;21071;-87
2023/01/03 12:10:09;;;;;;;7.47;1.85;;;;;;;6.00;83.17;100138.46;1632261;87;21045;-88
2023/01/03 12:12:59;;;;;;;6.28;1.20;;;;;;;6.10;83.36;100144.73;1634841;86;21021;-88
2023/01/03 12:15:47;;;;;;;4.92;1.22;;;;;;;6.16;83.28;100140.70;1620768;86;22070;-87
2023/01/03 12:18:30;;;;;;;6.40;1.65;;;;;;;6.20;83.09;100150.13;1631481;85;21018;-88
2023/01/03 12:21:12;;;;;;;6.10;1.50;;;;;;;6.17;83.16;100147.61;1635715;86;21018;-89
2023/01/03 12:23:50;;;;;;;6.47;1.72;;;;;;;6.20;83.30;100153.57;1641291;86;21045;-91
2023/01/03 12:26:18;;;;;;;8.10;1.40;;;;;;;6.18;83.30;100150.60;1639701;86;21554;-89
2023/01/03 12:28:51;;;;;;;;;;;;;;;6.09;83.19;100149.52;1642293;85;21115;-90
2023/01/03 12:31:28;;;;;;;5.75;1.37;;;;;;;6.00;83.24;100157.91;1637793;86;20144;-88
2023/01/03 12:34:33;;;;;;;3.77;1.30;;;;;;;5.93;83.37;100152.42;1637940;85;21077;-90
2023/01/03 12:37:23;;;;;;;8.68;1.52;;;;;;;5.90;83.28;100161.53;1645326;86;21077;-89
2023/01/03 12:39:56;;;;;;;6.20;1.42;;;;;;;5.82;83.27;100167.31;1640700;86;21577;-90
2023/01/03 12:43:06;;;;;;;6.15;1.17;;;;;;;5.77;83.36;100163.95;1639804;86;21005;-86
2023/01/03 12:46:05;;;;;;;5.50;1.52;;;;;;;5.74;83.29;100171.80;1614212;87;21047;-88
2023/01/03 12:49:04;;;;;;;4.72;1.70;;;;;;;5.71;83.43;100179.64;1607777;87;20997;-91
2023/01/03 12:51:32;;;;;;;3.70;1.07;;;;;;;5.66;83.44;100185.34;1607916;87;20997;-91
2023/01/03 12:54:19;;;;;;;5.87;1.57;;;;;;;5.64;83.58;100185.84;1587277;87;21057;-90
2023/01/03 12:57:21;;;;;;;4.12;1.17;;;;;;;5.65;83.55;100182.36;1536808;92;21143;-87
2023/01/03 13:00:16;;;;;;;3.05;1.07;;;;;;;5.63;83.49;100184.11;1549355;90;21558;-93
2023/01/03 13:03:16;;;;;;;2.50;1.20;;;;;;;5.58;83.57;100194.14;1563736;90;21536;-93
2023/01/03 13:05:54;;;;;;;3.02;1.47;;;;;;;5.54;83.59;100183.41;1553002;90;21139;-92
2023/01/03 13:08:30;;;;;;;3.20;1.20;;;;;;;5.52;83.63;100183.90;1550316;90;21506;-94
2023/01/03 13:11:04;;;;;;;4.03;1.50;;;;;;;5.54;83.67;100184.70;1552363;90;21716;-92
2023/01/03 13:13:32;;;;;;;3.40;1.20;;;;;;;5.53;83.71;100179.13;1556396;90;21131;-85
2023/01/03 13:15:59;;;;;;;5.95;1.40;;;;;;;5.48;83.67;100186.13;1536011;91;21535;-93
2023/01/03 13:18:33;;;;;;;5.90;1.52;;;;;;;5.45;83.87;100199.13;1554302;91;21479;-93
2023/01/03 13:21:00;;;;;;;5.35;1.37;;;;;;;5.43;83.74;100197.00;1565706;90;21579;-94